Goodspring, Tennessee
Current Conditions -  °F | °C
As of 3:55 AM on Sunday 25 Jan 2015 (Local Time) from KFYM Reporting Station
Clear Clear  
Wind Chill: 20°   Ceiling: Unl
Heat Index: 30°   Visibility: 10mi
Dew Point: 27°   Wind: 13mph
Humidity: 86%   Direction: 10°N
Pressure: 29.87"   Gusts: 28mph
Location:  35.14°N, 87.1°W
Report Text: KFYM 250955Z AUTO 01011G24KT 10SM CLR M01/M03 A2987 RMK
Loading
Personal Weather Stations






























Interactive Weather Map New forecast layout! Learn more

10-Day Weather Forecast

Advertisements
Track Severe Weather on mobile